Time;durP1;ratioP1;P1;durP2;ratioP2;P2;SDS_P1;SDS_P2;PMS_P1;PMS_P2;Temp;Humidity;BMP_temperature;BMP_pressure;BME280_temperature;BME280_humidity;BME280_pressure;Samples;Min_cycle;Max_cycle;Signal;HPM_P1;HPM_P2
2022/11/13 00:01:27;;;;;;;9.00;8.10;;;;;;;;;;5070780;28;20192;-44
2022/11/13 00:03:57;;;;;;;7.90;7.10;;;;;;;;;;5070360;28;20196;-44
2022/11/13 00:06:23;;;;;;;8.80;7.90;;;;;;;;;;5070560;28;20450;-44
2022/11/13 00:08:52;;;;;;;8.67;7.77;;;;;;;;;;5069624;28;20219;-44
2022/11/13 00:11:19;;;;;;;8.73;7.77;;;;;;;;;;5070066;28;20477;-44
2022/11/13 00:13:45;;;;;;;9.53;8.43;;;;;;;;;;5072227;28;20504;-44
2022/11/13 00:16:13;;;;;;;9.03;8.13;;;;;;;;;;5074319;28;20203;-44
2022/11/13 00:18:39;;;;;;;8.63;7.53;;;;;;;;;;5073902;28;20476;-44
2022/11/13 00:21:07;;;;;;;8.47;7.40;;;;;;;;;;5073560;28;20503;-44
2022/11/13 00:23:33;;;;;;;9.27;7.70;;;;;;;;;;5073646;28;20461;-45
2022/11/13 00:26:03;;;;;;;8.70;7.80;;;;;;;;;;5073618;28;20436;-44
2022/11/13 00:28:29;;;;;;;8.33;7.43;;;;;;;;;;5073930;28;20434;-44
2022/11/13 00:30:58;;;;;;;9.13;8.23;;;;;;;;;;5073381;28;20254;-44
2022/11/13 00:33:24;;;;;;;11.03;8.47;;;;;;;;;;5073696;28;20475;-44
2022/11/13 00:35:50;;;;;;;9.03;7.87;;;;;;;;;;5073026;28;20442;-44
2022/11/13 00:38:17;;;;;;;9.17;7.33;;;;;;;;;;5073712;28;20425;-44
2022/11/13 00:40:43;;;;;;;8.70;7.80;;;;;;;;;;5073404;28;20290;-44
2022/11/13 00:43:09;;;;;;;8.13;7.33;;;;;;;;;;5073719;28;20453;-44
2022/11/13 00:45:35;;;;;;;8.03;7.07;;;;;;;;;;5073292;28;20947;-44
2022/11/13 00:48:01;;;;;;;9.07;7.70;;;;;;;;;;5073071;28;20322;-44
2022/11/13 00:50:27;;;;;;;7.87;7.07;;;;;;;;;;5073511;28;20474;-44
2022/11/13 00:52:53;;;;;;;7.90;7.10;;;;;;;;;;5073163;28;20481;-44
2022/11/13 00:55:21;;;;;;;9.50;7.57;;;;;;;;;;5072132;28;20434;-44
2022/11/13 00:57:47;;;;;;;7.23;6.53;;;;;;;;;;5072515;28;20290;-44
2022/11/13 01:00:13;;;;;;;8.47;7.40;;;;;;;;;;5073302;28;20458;-44
2022/11/13 01:02:39;;;;;;;7.90;7.10;;;;;;;;;;5072933;28;21001;-44
2022/11/13 01:05:05;;;;;;;7.83;6.87;;;;;;;;;;5069641;28;20477;-45
2022/11/13 01:07:31;;;;;;;7.30;6.60;;;;;;;;;;5073354;28;20426;-44
2022/11/13 01:09:58;;;;;;;7.00;6.37;;;;;;;;;;5073069;28;20460;-44
2022/11/13 01:12:26;;;;;;;8.63;7.73;;;;;;;;;;5073092;28;20473;-44
2022/11/13 01:14:52;;;;;;;9.17;7.00;;;;;;;;;;5072806;28;20499;-44
2022/11/13 01:17:18;;;;;;;7.67;6.97;;;;;;;;;;5073051;28;20433;-45
2022/11/13 01:19:44;;;;;;;8.40;7.43;;;;;;;;;;5072885;28;20457;-45
2022/11/13 01:22:10;;;;;;;9.17;8.20;;;;;;;;;;5073096;28;20438;-45
2022/11/13 01:24:36;;;;;;;8.37;7.47;;;;;;;;;;5072437;28;20430;-45
2022/11/13 01:27:02;;;;;;;12.73;10.20;;;;;;;;;;5072562;28;20206;-44
2022/11/13 01:29:29;;;;;;;12.33;10.80;;;;;;;;;;5072845;28;20465;-45
2022/11/13 01:31:55;;;;;;;13.17;10.70;;;;;;;;;;5072081;28;20584;-44
2022/11/13 01:34:21;;;;;;;13.57;11.20;;;;;;;;;;5072810;28;20854;-44
2022/11/13 01:36:47;;;;;;;12.60;10.37;;;;;;;;;;5072621;28;20294;-45
2022/11/13 01:39:13;;;;;;;10.50;9.40;;;;;;;;;;5072397;28;20446;-45
2022/11/13 01:41:40;;;;;;;11.37;9.10;;;;;;;;;;5072358;28;20479;-44
2022/11/13 01:44:06;;;;;;;9.30;8.30;;;;;;;;;;5072511;28;20438;-45
2022/11/13 01:46:34;;;;;;;8.43;7.60;;;;;;;;;;5072550;28;20477;-44
2022/11/13 01:49:12;;;;;;;9.33;7.83;;;;;;;;;;5072280;28;20473;-45
2022/11/13 01:51:39;;;;;;;9.60;7.67;;;;;;;;;;5072284;28;20481;-44
2022/11/13 01:54:06;;;;;;;8.43;7.53;;;;;;;;;;5072477;28;20483;-45
2022/11/13 01:56:32;;;;;;;7.70;6.90;;;;;;;;;;5072439;28;20434;-44
2022/11/13 01:59:04;;;;;;;8.07;6.80;;;;;;;;;;5071284;28;20472;-45
2022/11/13 02:01:30;;;;;;;7.20;6.50;;;;;;;;;;5072398;28;20441;-44
2022/11/13 02:03:57;;;;;;;7.33;6.63;;;;;;;;;;5071665;28;20473;-45
2022/11/13 02:06:24;;;;;;;8.00;6.80;;;;;;;;;;5072240;28;20489;-44
2022/11/13 02:08:50;;;;;;;6.93;6.23;;;;;;;;;;5070218;28;20446;-45
2022/11/13 02:11:17;;;;;;;6.10;5.50;;;;;;;;;;5072169;28;20469;-45
2022/11/13 02:13:43;;;;;;;6.60;6.00;;;;;;;;;;5071818;28;20458;-45
2022/11/13 02:16:10;;;;;;;6.27;5.67;;;;;;;;;;5071923;28;20873;-45
2022/11/13 02:18:37;;;;;;;7.13;5.83;;;;;;;;;;5072002;28;20441;-45
2022/11/13 02:21:08;;;;;;;6.20;5.60;;;;;;;;;;5071810;28;20434;-45
2022/11/13 02:23:38;;;;;;;6.20;5.40;;;;;;;;;;5071279;28;20488;-45
2022/11/13 02:26:05;;;;;;;6.23;5.63;;;;;;;;;;5071686;28;20465;-45
2022/11/13 02:28:31;;;;;;;6.43;5.73;;;;;;;;;;5071764;28;20875;-45
2022/11/13 02:31:04;;;;;;;6.70;5.93;;;;;;;;;;5071640;28;20450;-45
2022/11/13 02:33:31;;;;;;;7.63;6.23;;;;;;;;;;5071827;28;20438;-45
2022/11/13 02:35:58;;;;;;;7.43;6.73;;;;;;;;;;5071217;28;20503;-45
2022/11/13 02:38:24;;;;;;;10.27;7.23;;;;;;;;;;5071779;28;20437;-45
2022/11/13 02:40:50;;;;;;;9.37;7.63;;;;;;;;;;5071574;28;20433;-45
2022/11/13 02:43:17;;;;;;;8.83;7.40;;;;;;;;;;5071628;28;20429;-45
2022/11/13 02:45:43;;;;;;;9.43;7.83;;;;;;;;;;5071434;28;20481;-45
2022/11/13 02:48:09;;;;;;;9.33;7.27;;;;;;;;;;5071389;28;20504;-45
2022/11/13 02:50:37;;;;;;;10.37;8.83;;;;;;;;;;5071587;28;20481;-45
2022/11/13 02:53:03;;;;;;;10.60;8.33;;;;;;;;;;5071428;28;20245;-45
2022/11/13 02:55:29;;;;;;;9.17;7.60;;;;;;;;;;5071513;28;20434;-45
2022/11/13 02:57:55;;;;;;;10.27;8.53;;;;;;;;;;5071348;28;20437;-45
2022/11/13 03:00:23;;;;;;;9.03;8.13;;;;;;;;;;5071330;28;20424;-45
2022/11/13 03:02:49;;;;;;;9.37;7.53;;;;;;;;;;5071217;28;21016;-45
2022/11/13 03:05:15;;;;;;;9.47;7.63;;;;;;;;;;5071038;28;20982;-45
2022/11/13 03:07:41;;;;;;;9.30;7.53;;;;;;;;;;5070768;28;20932;-45
2022/11/13 03:10:08;;;;;;;9.00;8.07;;;;;;;;;;5071235;28;20491;-45
2022/11/13 03:12:34;;;;;;;9.53;7.70;;;;;;;;;;5071218;28;20477;-45
2022/11/13 03:15:00;;;;;;;8.20;7.13;;;;;;;;;;5071178;28;20433;-45
2022/11/13 03:17:30;;;;;;;9.00;7.60;;;;;;;;;;5071104;28;20820;-45
2022/11/13 03:19:56;;;;;;;8.63;7.30;;;;;;;;;;5070213;28;20532;-45
2022/11/13 03:22:22;;;;;;;8.53;7.67;;;;;;;;;;5069136;28;20464;-45
2022/11/13 03:24:48;;;;;;;8.47;6.73;;;;;;;;;;5070801;28;20426;-46
2022/11/13 03:27:14;;;;;;;8.10;7.27;;;;;;;;;;5070765;28;20433;-45
2022/11/13 03:29:40;;;;;;;8.10;6.93;;;;;;;;;;5071016;28;20458;-45
2022/11/13 03:32:06;;;;;;;8.00;7.20;;;;;;;;;;5071230;28;20509;-45
2022/11/13 03:34:33;;;;;;;8.83;6.87;;;;;;;;;;5071004;28;20929;-45
2022/11/13 03:36:59;;;;;;;8.10;7.30;;;;;;;;;;5070987;28;20619;-45
2022/11/13 03:39:25;;;;;;;8.67;7.47;;;;;;;;;;5071079;28;20426;-44
2022/11/13 03:41:51;;;;;;;9.70;7.67;;;;;;;;;;5070975;28;20464;-46
2022/11/13 03:44:17;;;;;;;8.77;7.50;;;;;;;;;;5070808;28;20452;-49
2022/11/13 03:46:43;;;;;;;9.07;7.20;;;;;;;;;;5070899;28;20468;-45
2022/11/13 03:49:10;;;;;;;8.73;7.80;;;;;;;;;;5073776;28;20476;-44
2022/11/13 03:51:37;;;;;;;8.10;6.87;;;;;;;;;;5074956;28;20216;-45
2022/11/13 03:54:03;;;;;;;8.40;7.50;;;;;;;;;;5074689;28;20433;-45
2022/11/13 03:56:29;;;;;;;8.40;7.27;;;;;;;;;;5074458;28;20430;-45
2022/11/13 03:58:55;;;;;;;7.73;7.03;;;;;;;;;;5074642;28;20440;-45
2022/11/13 04:01:21;;;;;;;9.53;7.20;;;;;;;;;;5074664;28;20426;-50
2022/11/13 04:03:47;;;;;;;8.93;7.43;;;;;;;;;;5074569;28;20200;-45
2022/11/13 04:06:14;;;;;;;9.17;7.13;;;;;;;;;;5074494;28;20437;-45
2022/11/13 04:08:41;;;;;;;8.63;7.70;;;;;;;;;;5074122;28;20215;-45
2022/11/13 04:11:08;;;;;;;8.50;7.70;;;;;;;;;;5074236;28;20462;-44
2022/11/13 04:13:34;;;;;;;8.30;7.50;;;;;;;;;;5074336;28;20444;-44
2022/11/13 04:16:00;;;;;;;8.33;7.33;;;;;;;;;;5074243;28;20870;-45
2022/11/13 04:18:26;;;;;;;8.53;7.60;;;;;;;;;;5074072;28;20932;-44
2022/11/13 04:20:52;;;;;;;8.70;7.30;;;;;;;;;;5074055;28;20963;-45
2022/11/13 04:23:18;;;;;;;7.70;6.90;;;;;;;;;;5074024;28;20442;-44
2022/11/13 04:25:47;;;;;;;8.93;7.50;;;;;;;;;;5072964;28;20545;-44
2022/11/13 04:28:13;;;;;;;8.20;7.33;;;;;;;;;;5073888;28;20445;-44
2022/11/13 04:30:39;;;;;;;8.30;7.50;;;;;;;;;;5074184;28;20437;-43
2022/11/13 04:33:06;;;;;;;7.90;7.10;;;;;;;;;;5073744;28;20220;-44
2022/11/13 04:35:32;;;;;;;8.10;7.30;;;;;;;;;;5074020;28;20437;-43
2022/11/13 04:37:58;;;;;;;8.03;7.20;;;;;;;;;;5073911;28;20442;-45
2022/11/13 04:40:24;;;;;;;9.50;8.50;;;;;;;;;;5073865;28;20433;-45
2022/11/13 04:42:51;;;;;;;9.67;8.77;;;;;;;;;;5073806;28;20223;-45
2022/11/13 04:45:18;;;;;;;9.67;8.53;;;;;;;;;;5073771;28;20662;-45
2022/11/13 04:47:44;;;;;;;8.73;7.93;;;;;;;;;;5073596;28;20452;-45
2022/11/13 04:50:11;;;;;;;10.83;8.40;;;;;;;;;;5073570;28;20810;-43
2022/11/13 04:52:37;;;;;;;9.27;8.37;;;;;;;;;;5073647;28;20552;-45
2022/11/13 04:55:03;;;;;;;9.87;8.80;;;;;;;;;;5073341;28;21037;-45
2022/11/13 04:57:29;;;;;;;10.10;9.10;;;;;;;;;;5073633;28;20521;-45
2022/11/13 04:59:57;;;;;;;9.80;8.80;;;;;;;;;;5072985;28;20430;-45
2022/11/13 05:02:23;;;;;;;10.17;8.60;;;;;;;;;;5073417;28;20928;-45
2022/11/13 05:04:49;;;;;;;10.43;9.07;;;;;;;;;;5073328;28;20430;-45
2022/11/13 05:07:15;;;;;;;10.23;9.00;;;;;;;;;;5073306;28;20442;-45
2022/11/13 05:09:41;;;;;;;9.50;8.60;;;;;;;;;;5073064;28;20662;-45
2022/11/13 05:12:08;;;;;;;10.73;8.77;;;;;;;;;;5072672;28;20988;-45
2022/11/13 05:14:34;;;;;;;10.90;9.37;;;;;;;;;;5072021;28;20434;-45
2022/11/13 05:17:02;;;;;;;9.97;8.77;;;;;;;;;;5071136;28;20461;-45
2022/11/13 05:19:28;;;;;;;9.83;8.83;;;;;;;;;;5072016;28;20453;-45
2022/11/13 05:21:54;;;;;;;10.77;9.67;;;;;;;;;;5072830;28;20851;-43
2022/11/13 05:24:20;;;;;;;9.50;8.50;;;;;;;;;;5072962;28;20610;-45
2022/11/13 05:26:46;;;;;;;9.53;8.57;;;;;;;;;;5072732;28;21176;-45
2022/11/13 05:29:12;;;;;;;9.67;8.33;;;;;;;;;;5072982;28;20256;-45
2022/11/13 05:31:38;;;;;;;11.13;9.23;;;;;;;;;;5072876;28;20466;-45
2022/11/13 05:34:06;;;;;;;10.50;9.33;;;;;;;;;;5072858;28;21013;-45
2022/11/13 05:36:32;;;;;;;10.63;9.07;;;;;;;;;;5072709;28;20473;-45
2022/11/13 05:38:58;;;;;;;9.40;8.50;;;;;;;;;;5072513;28;20464;-45
2022/11/13 05:41:24;;;;;;;10.23;8.93;;;;;;;;;;5072637;28;20442;-45
2022/11/13 05:43:51;;;;;;;11.40;9.53;;;;;;;;;;5072568;28;20796;-45
2022/11/13 05:46:18;;;;;;;11.07;9.97;;;;;;;;;;5072714;28;20503;-45
2022/11/13 05:48:44;;;;;;;10.10;8.77;;;;;;;;;;5072312;28;20479;-45
2022/11/13 05:51:12;;;;;;;11.40;9.13;;;;;;;;;;5072541;28;20446;-45
2022/11/13 05:53:39;;;;;;;10.07;9.07;;;;;;;;;;5072371;28;20461;-45
2022/11/13 05:56:06;;;;;;;10.17;9.07;;;;;;;;;;5072497;28;20438;-45
2022/11/13 05:58:33;;;;;;;10.93;9.70;;;;;;;;;;5072451;28;20476;-43
2022/11/13 06:01:09;;;;;;;10.87;9.47;;;;;;;;;;5072179;28;20442;-45
2022/11/13 06:03:36;;;;;;;11.33;10.03;;;;;;;;;;5072211;28;20441;-45
2022/11/13 06:06:02;;;;;;;11.53;10.33;;;;;;;;;;5072138;28;20426;-45
2022/11/13 06:08:29;;;;;;;10.67;9.40;;;;;;;;;;5072059;28;20819;-45
2022/11/13 06:10:58;;;;;;;11.07;9.73;;;;;;;;;;5071213;28;20450;-45
2022/11/13 06:13:24;;;;;;;10.30;9.30;;;;;;;;;;5072010;28;20876;-45
2022/11/13 06:15:50;;;;;;;11.23;9.40;;;;;;;;;;5071977;28;20465;-45
2022/11/13 06:18:20;;;;;;;10.47;9.33;;;;;;;;;;5071997;28;20452;-45
2022/11/13 06:20:46;;;;;;;11.73;9.30;;;;;;;;;;5071835;28;20499;-43
2022/11/13 06:23:12;;;;;;;10.53;9.37;;;;;;;;;;5071822;28;20442;-45
2022/11/13 06:25:39;;;;;;;13.80;10.47;;;;;;;;;;5071873;28;20422;-45
2022/11/13 06:28:05;;;;;;;11.23;10.00;;;;;;;;;;5071840;28;20516;-45
2022/11/13 06:30:31;;;;;;;12.03;10.47;;;;;;;;;;5071775;28;20445;-45
2022/11/13 06:32:57;;;;;;;11.90;10.67;;;;;;;;;;5071637;28;20489;-45
2022/11/13 06:35:23;;;;;;;13.20;11.90;;;;;;;;;;5071845;28;20426;-45
2022/11/13 06:37:49;;;;;;;13.40;10.73;;;;;;;;;;5071544;28;20517;-45
2022/11/13 06:40:15;;;;;;;12.47;10.90;;;;;;;;;;5071448;28;20453;-45
2022/11/13 06:42:43;;;;;;;11.93;10.73;;;;;;;;;;5071652;28;20426;-45
2022/11/13 06:45:09;;;;;;;11.80;10.43;;;;;;;;;;5071578;28;20446;-45
2022/11/13 06:47:35;;;;;;;11.63;10.47;;;;;;;;;;5071406;28;20483;-45
2022/11/13 06:50:01;;;;;;;12.47;11.17;;;;;;;;;;5071542;28;20438;-45
2022/11/13 06:52:27;;;;;;;13.70;10.90;;;;;;;;;;5071440;28;21021;-45
2022/11/13 06:54:53;;;;;;;12.53;10.97;;;;;;;;;;5071270;28;20948;-45
2022/11/13 06:57:19;;;;;;;12.43;11.13;;;;;;;;;;5071464;28;20434;-44
2022/11/13 06:59:47;;;;;;;12.80;11.50;;;;;;;;;;5071172;28;20508;-46
2022/11/13 07:02:13;;;;;;;12.00;10.80;;;;;;;;;;5070988;28;20282;-45
2022/11/13 07:04:39;;;;;;;12.83;11.40;;;;;;;;;;5070278;28;20452;-45
2022/11/13 07:07:05;;;;;;;12.17;10.83;;;;;;;;;;5070373;28;20500;-45
2022/11/13 07:09:31;;;;;;;12.53;11.23;;;;;;;;;;5069991;28;21026;-45
2022/11/13 07:11:57;;;;;;;13.37;11.97;;;;;;;;;;5070590;28;20263;-44
2022/11/13 07:14:23;;;;;;;14.47;11.07;;;;;;;;;;5071140;28;20495;-45
2022/11/13 07:16:50;;;;;;;12.07;10.73;;;;;;;;;;5070962;28;20434;-45
2022/11/13 07:19:16;;;;;;;14.03;12.10;;;;;;;;;;5070856;28;20524;-45
2022/11/13 07:21:42;;;;;;;15.00;12.73;;;;;;;;;;5071472;28;20460;-45
2022/11/13 07:24:08;;;;;;;16.63;13.70;;;;;;;;;;5073815;28;20445;-45
2022/11/13 07:26:34;;;;;;;14.73;13.00;;;;;;;;;;5074674;28;20955;-45
2022/11/13 07:29:00;;;;;;;13.17;11.77;;;;;;;;;;5075043;28;20669;-45
2022/11/13 07:31:26;;;;;;;13.07;11.67;;;;;;;;;;5074847;28;20526;-45
2022/11/13 07:33:54;;;;;;;11.47;10.33;;;;;;;;;;5074002;28;20187;-46
2022/11/13 07:36:20;;;;;;;10.93;9.83;;;;;;;;;;5074811;28;20249;-46
2022/11/13 07:38:46;;;;;;;12.17;10.97;;;;;;;;;;5074871;28;20198;-46
2022/11/13 07:41:12;;;;;;;10.33;8.47;;;;;;;;;;5074739;28;20623;-45
2022/11/13 07:43:38;;;;;;;12.53;10.20;;;;;;;;;;5074743;28;20203;-46
2022/11/13 07:46:04;;;;;;;10.40;9.30;;;;;;;;;;5074733;28;20360;-45
2022/11/13 07:48:30;;;;;;;9.80;8.80;;;;;;;;;;5074715;28;20236;-46
2022/11/13 07:51:00;;;;;;;11.00;9.90;;;;;;;;;;5073389;28;20203;-45
2022/11/13 07:53:26;;;;;;;10.90;9.70;;;;;;;;;;5074815;28;20310;-46
2022/11/13 07:55:53;;;;;;;11.97;10.30;;;;;;;;;;5074720;28;20200;-46
2022/11/13 07:58:19;;;;;;;10.57;9.57;;;;;;;;;;5074221;28;20298;-43
2022/11/13 08:00:45;;;;;;;10.57;9.47;;;;;;;;;;5074544;28;20290;-44
2022/11/13 08:03:12;;;;;;;12.37;9.43;;;;;;;;;;5074109;28;20207;-46
2022/11/13 08:05:38;;;;;;;10.77;9.23;;;;;;;;;;5074274;28;20195;-46
2022/11/13 08:08:06;;;;;;;10.07;9.03;;;;;;;;;;5074033;28;20226;-44
2022/11/13 08:10:32;;;;;;;10.83;9.73;;;;;;;;;;5074297;28;20204;-44
2022/11/13 08:12:59;;;;;;;11.37;8.77;;;;;;;;;;5074092;28;20310;-45
2022/11/13 08:15:25;;;;;;;9.67;8.67;;;;;;;;;;5074005;28;20658;-44
2022/11/13 08:17:55;;;;;;;10.60;9.30;;;;;;;;;;5073762;28;20192;-44
2022/11/13 08:20:21;;;;;;;10.53;9.20;;;;;;;;;;5073833;28;20816;-44
2022/11/13 08:22:47;;;;;;;9.97;8.33;;;;;;;;;;5074037;28;20254;-44
2022/11/13 08:25:14;;;;;;;10.57;9.33;;;;;;;;;;5073882;28;20642;-44
2022/11/13 08:27:40;;;;;;;9.97;8.93;;;;;;;;;;5073901;28;20208;-44
2022/11/13 08:30:07;;;;;;;11.60;9.33;;;;;;;;;;5073735;28;20609;-44
2022/11/13 08:32:33;;;;;;;9.67;8.67;;;;;;;;;;5073678;28;20245;-44
2022/11/13 08:34:59;;;;;;;10.70;9.60;;;;;;;;;;5072798;28;20196;-44
2022/11/13 08:37:25;;;;;;;10.37;9.37;;;;;;;;;;5073733;28;20205;-44
2022/11/13 08:39:51;;;;;;;10.30;9.17;;;;;;;;;;5073402;28;20215;-45
2022/11/13 08:42:18;;;;;;;11.50;10.00;;;;;;;;;;5073340;28;20302;-44
2022/11/13 08:44:45;;;;;;;10.97;9.87;;;;;;;;;;5073111;28;20211;-45
2022/11/13 08:47:11;;;;;;;9.90;8.90;;;;;;;;;;5073355;28;20278;-45
2022/11/13 08:49:37;;;;;;;10.57;9.10;;;;;;;;;;5073551;28;20292;-45
2022/11/13 08:52:03;;;;;;;9.57;8.57;;;;;;;;;;5072107;28;20288;-45
2022/11/13 08:54:29;;;;;;;10.07;8.70;;;;;;;;;;5073891;28;20869;-46
2022/11/13 08:56:55;;;;;;;8.63;7.70;;;;;;;;;;5073685;28;20207;-45
2022/11/13 08:59:22;;;;;;;8.73;7.83;;;;;;;;;;5073930;28;20204;-44
2022/11/13 09:01:48;;;;;;;8.97;8.07;;;;;;;;;;5073728;28;20279;-44
2022/11/13 09:04:14;;;;;;;8.37;7.57;;;;;;;;;;5073610;28;20207;-44
2022/11/13 09:06:40;;;;;;;8.47;7.67;;;;;;;;;;5073593;28;20203;-43
2022/11/13 09:09:06;;;;;;;8.43;7.63;;;;;;;;;;5073332;28;20797;-44
2022/11/13 09:11:32;;;;;;;9.20;8.20;;;;;;;;;;5073471;28;20689;-45
2022/11/13 09:13:59;;;;;;;9.00;7.97;;;;;;;;;;5073459;28;20668;-45
2022/11/13 09:16:26;;;;;;;9.60;8.57;;;;;;;;;;5073552;28;20204;-44
2022/11/13 09:18:52;;;;;;;9.43;8.53;;;;;;;;;;5073284;28;20256;-45
2022/11/13 09:21:18;;;;;;;9.30;8.30;;;;;;;;;;5073368;28;20196;-44
2022/11/13 09:23:44;;;;;;;8.43;7.63;;;;;;;;;;5073318;28;20202;-45
2022/11/13 09:26:11;;;;;;;8.60;7.70;;;;;;;;;;5073150;28;20202;-45
2022/11/13 09:28:37;;;;;;;8.30;7.50;;;;;;;;;;5073277;28;20251;-44
2022/11/13 09:31:04;;;;;;;8.27;7.47;;;;;;;;;;5073365;28;20288;-44
2022/11/13 09:33:31;;;;;;;8.37;7.57;;;;;;;;;;5073074;28;20250;-45
2022/11/13 09:35:57;;;;;;;8.57;7.77;;;;;;;;;;5072943;28;20286;-44
2022/11/13 09:38:23;;;;;;;8.43;7.63;;;;;;;;;;5073050;28;20253;-45
2022/11/13 09:40:53;;;;;;;8.47;7.67;;;;;;;;;;5072907;28;20200;-45
2022/11/13 09:43:24;;;;;;;8.67;7.83;;;;;;;;;;5072988;28;20283;-45
2022/11/13 09:45:51;;;;;;;9.00;8.20;;;;;;;;;;5072686;28;20206;-44
2022/11/13 09:48:22;;;;;;;8.53;7.60;;;;;;;;;;5072530;28;20253;-45
2022/11/13 09:50:51;;;;;;;9.67;8.77;;;;;;;;;;5072851;28;20203;-45
2022/11/13 09:53:17;;;;;;;8.83;8.00;;;;;;;;;;5072722;28;20753;-45
2022/11/13 09:55:48;;;;;;;9.23;8.33;;;;;;;;;;5072693;28;20541;-45
2022/11/13 09:58:19;;;;;;;8.57;7.73;;;;;;;;;;5072596;28;20203;-45
2022/11/13 10:00:45;;;;;;;11.67;10.57;;;;;;;;;;5072520;28;20725;-44
2022/11/13 10:03:29;;;;;;;9.10;8.30;;;;;;;;;;5072374;28;20188;-46
2022/11/13 10:06:00;;;;;;;9.60;8.70;;;;;;;;;;5072391;28;20570;-46
2022/11/13 10:08:27;;;;;;;8.70;7.90;;;;;;;;;;5072419;28;20277;-45
2022/11/13 10:10:58;;;;;;;8.33;7.53;;;;;;;;;;5072305;28;20235;-45
2022/11/13 10:13:37;;;;;;;8.73;7.93;;;;;;;;;;5072344;28;20330;-45
2022/11/13 10:16:05;;;;;;;8.30;7.50;;;;;;;;;;5072207;28;20195;-46
2022/11/13 10:18:34;;;;;;;8.93;8.13;;;;;;;;;;5072241;28;20207;-46
2022/11/13 10:21:05;;;;;;;8.43;7.63;;;;;;;;;;5071658;28;20200;-46
2022/11/13 10:23:33;;;;;;;8.70;7.90;;;;;;;;;;5068177;28;20219;-45
2022/11/13 10:26:01;;;;;;;8.93;8.03;;;;;;;;;;5071943;28;20199;-45
2022/11/13 10:28:27;;;;;;;8.70;7.90;;;;;;;;;;5071976;28;20208;-45
2022/11/13 10:30:53;;;;;;;9.13;8.23;;;;;;;;;;5071821;28;20279;-45
2022/11/13 10:33:21;;;;;;;8.80;8.00;;;;;;;;;;5072263;28;20254;-45
2022/11/13 10:35:51;;;;;;;17.60;15.70;;;;;;;;;;5072091;28;20697;-44
2022/11/13 10:38:24;;;;;;;8.30;7.50;;;;;;;;;;5071982;28;20198;-45
2022/11/13 10:40:50;;;;;;;11.37;10.27;;;;;;;;;;5071790;28;20201;-46
2022/11/13 10:43:17;;;;;;;10.33;9.33;;;;;;;;;;5071863;28;20550;-46
2022/11/13 10:45:54;;;;;;;9.13;8.23;;;;;;;;;;5069481;28;20710;-45
2022/11/13 10:48:21;;;;;;;37.40;33.53;;;;;;;;;;5071237;28;20360;-44
2022/11/13 10:50:52;;;;;;;10.13;9.13;;;;;;;;;;5071673;28;20617;-45
2022/11/13 10:53:19;;;;;;;8.17;7.47;;;;;;;;;;5071826;28;20219;-45
2022/11/13 10:55:49;;;;;;;8.00;7.30;;;;;;;;;;5071581;28;20625;-45
2022/11/13 10:58:16;;;;;;;8.17;7.37;;;;;;;;;;5071302;28;20245;-45
2022/11/13 11:00:47;;;;;;;10.43;8.40;;;;;;;;;;5071790;28;20206;-45
2022/11/13 11:03:14;;;;;;;8.53;7.83;;;;;;;;;;5071576;28;20681;-45
2022/11/13 11:05:50;;;;;;;12.67;11.43;;;;;;;;;;5071787;28;20291;-45
2022/11/13 11:08:17;;;;;;;19.13;17.03;;;;;;;;;;5071596;28;20306;-46
2022/11/13 11:13:39;;;;;;;8.47;7.67;;;;;;;;;;5071089;28;20267;-45
2022/11/13 11:16:07;;;;;;;8.60;7.70;;;;;;;;;;5071730;28;20236;-45
2022/11/13 11:18:35;;;;;;;25.00;22.37;;;;;;;;;;5071536;28;20278;-45
2022/11/13 11:21:05;;;;;;;49.67;37.87;;;;;;;;;;5069752;28;20206;-46
2022/11/13 11:23:35;;;;;;;14.27;12.77;;;;;;;;;;5071455;28;20198;-46
2022/11/13 11:26:05;;;;;;;101.57;75.07;;;;;;;;;;5071440;28;20606;-46
2022/11/13 11:28:33;;;;;;;26.63;22.77;;;;;;;;;;5071572;28;20203;-46
2022/11/13 11:31:04;;;;;;;11.17;10.07;;;;;;;;;;5071459;28;20274;-46
2022/11/13 11:33:32;;;;;;;10.33;9.33;;;;;;;;;;5071471;28;20575;-46
2022/11/13 11:36:01;;;;;;;8.87;8.07;;;;;;;;;;5071487;28;20205;-47
2022/11/13 11:38:32;;;;;;;8.83;8.00;;;;;;;;;;5071191;28;20252;-46
2022/11/13 11:41:03;;;;;;;11.37;10.27;;;;;;;;;;5071496;28;20198;-47
2022/11/13 11:43:34;;;;;;;8.87;7.97;;;;;;;;;;5071519;28;20200;-47
2022/11/13 11:46:01;;;;;;;9.63;8.50;;;;;;;;;;5071400;28;20202;-47
2022/11/13 11:48:29;;;;;;;10.20;9.20;;;;;;;;;;5071234;28;20242;-46
2022/11/13 11:51:00;;;;;;;13.43;12.13;;;;;;;;;;5071275;28;20208;-46
2022/11/13 11:53:30;;;;;;;10.57;9.57;;;;;;;;;;5069026;28;20273;-46
2022/11/13 11:56:05;;;;;;;11.27;10.27;;;;;;;;;;5070771;28;20212;-46
2022/11/13 11:58:40;;;;;;;12.20;11.00;;;;;;;;;;5071124;28;20199;-46
2022/11/13 12:01:13;;;;;;;12.17;10.97;;;;;;;;;;5071045;28;20191;-46
2022/11/13 12:04:12;;;;;;;33.37;29.80;;;;;;;;;;5070212;28;20599;-46
2022/11/13 12:06:45;;;;;;;11.83;10.70;;;;;;;;;;5008815;28;20198;-46
2022/11/13 12:09:16;;;;;;;14.73;13.23;;;;;;;;;;5010361;28;20221;-46
2022/11/13 12:11:47;;;;;;;13.40;12.00;;;;;;;;;;5044266;28;20209;-46
2022/11/13 12:14:15;;;;;;;10.77;9.77;;;;;;;;;;5073827;28;20205;-46
2022/11/13 12:16:49;;;;;;;12.50;11.20;;;;;;;;;;5074729;28;20213;-46
2022/11/13 12:19:21;;;;;;;11.90;10.70;;;;;;;;;;5074688;28;20201;-46
2022/11/13 12:21:52;;;;;;;11.77;10.63;;;;;;;;;;5074473;28;20198;-46
2022/11/13 12:24:30;;;;;;;12.57;11.30;;;;;;;;;;5074426;28;20205;-46
2022/11/13 12:27:05;;;;;;;17.70;15.27;;;;;;;;;;5072596;28;20202;-46
2022/11/13 12:29:38;;;;;;;13.47;11.97;;;;;;;;;;5074468;28;20206;-46
2022/11/13 12:32:11;;;;;;;17.53;15.70;;;;;;;;;;5074357;28;20268;-45
2022/11/13 12:34:39;;;;;;;14.07;12.20;;;;;;;;;;5074408;28;20222;-46
2022/11/13 12:37:09;;;;;;;23.77;19.40;;;;;;;;;;5071337;28;20389;-46
2022/11/13 12:39:40;;;;;;;28.73;23.43;;;;;;;;;;5072978;28;20294;-46
2022/11/13 12:42:12;;;;;;;26.20;21.70;;;;;;;;;;5074015;28;20191;-45
2022/11/13 12:44:44;;;;;;;28.93;23.70;;;;;;;;;;5074038;28;20615;-46
2022/11/13 12:47:12;;;;;;;18.40;16.50;;;;;;;;;;5073993;28;20223;-46
2022/11/13 12:49:38;;;;;;;17.23;15.43;;;;;;;;;;5073839;28;20241;-46
2022/11/13 12:52:05;;;;;;;19.40;16.50;;;;;;;;;;5073758;28;20215;-46
2022/11/13 12:54:32;;;;;;;16.13;14.37;;;;;;;;;;5073922;28;20538;-46
2022/11/13 12:57:06;;;;;;;24.33;21.23;;;;;;;;;;5074131;28;20192;-46
2022/11/13 12:59:33;;;;;;;18.03;15.03;;;;;;;;;;5073937;28;20461;-46
2022/11/13 13:02:03;;;;;;;17.87;15.20;;;;;;;;;;5073791;28;20196;-46
2022/11/13 13:04:37;;;;;;;16.63;14.30;;;;;;;;;;5073947;28;20200;-45
2022/11/13 13:07:08;;;;;;;18.27;16.10;;;;;;;;;;5073655;28;20215;-45
2022/11/13 13:09:44;;;;;;;17.87;14.93;;;;;;;;;;5073672;28;20219;-45
2022/11/13 13:12:15;;;;;;;18.63;16.17;;;;;;;;;;5073573;28;20211;-45
2022/11/13 13:14:51;;;;;;;21.80;18.63;;;;;;;;;;5073678;28;20256;-45
2022/11/13 13:17:19;;;;;;;19.47;16.90;;;;;;;;;;5073583;28;20714;-46
2022/11/13 13:19:56;;;;;;;26.37;21.27;;;;;;;;;;5073034;28;20776;-45
2022/11/13 13:22:26;;;;;;;18.47;14.70;;;;;;;;;;5073401;28;20614;-45
2022/11/13 13:24:58;;;;;;;23.40;20.10;;;;;;;;;;5073455;28;20245;-45
2022/11/13 13:27:25;;;;;;;29.47;23.93;;;;;;;;;;5073384;28;20199;-45
2022/11/13 13:29:51;;;;;;;23.50;19.57;;;;;;;;;;5073246;28;20662;-45
2022/11/13 13:32:20;;;;;;;17.03;15.03;;;;;;;;;;5073023;28;20709;-45
2022/11/13 13:34:52;;;;;;;18.20;15.37;;;;;;;;;;5073150;28;20211;-44
2022/11/13 13:37:25;;;;;;;21.70;16.67;;;;;;;;;;5073000;28;20257;-45
2022/11/13 13:39:55;;;;;;;26.17;20.47;;;;;;;;;;5073121;28;20650;-45
2022/11/13 13:42:40;;;;;;;24.97;21.33;;;;;;;;;;5072977;28;20246;-45
2022/11/13 13:45:14;;;;;;;18.63;15.10;;;;;;;;;;5072894;28;20305;-45
2022/11/13 13:47:43;;;;;;;20.40;15.87;;;;;;;;;;5072805;28;20564;-46
2022/11/13 13:50:13;;;;;;;20.97;16.57;;;;;;;;;;5072733;28;20200;-45
2022/11/13 13:52:39;;;;;;;18.20;15.67;;;;;;;;;;5072710;28;20285;-45
2022/11/13 13:55:06;;;;;;;21.23;16.33;;;;;;;;;;5072934;28;20210;-45
2022/11/13 13:57:33;;;;;;;18.60;15.27;;;;;;;;;;5070555;28;20196;-45
2022/11/13 14:00:00;;;;;;;21.43;15.67;;;;;;;;;;5072505;28;20196;-45
2022/11/13 14:02:26;;;;;;;20.93;17.47;;;;;;;;;;5070247;28;20191;-45
2022/11/13 14:04:53;;;;;;;39.63;30.00;;;;;;;;;;5070673;28;20219;-45
2022/11/13 14:07:23;;;;;;;27.87;21.00;;;;;;;;;;5072296;28;20202;-45
2022/11/13 14:09:49;;;;;;;64.27;41.00;;;;;;;;;;5072369;28;20227;-45
2022/11/13 14:12:19;;;;;;;55.73;37.00;;;;;;;;;;5071967;28;20227;-45
2022/11/13 14:14:45;;;;;;;40.20;26.30;;;;;;;;;;5072182;28;20592;-45
2022/11/13 14:17:11;;;;;;;30.97;21.63;;;;;;;;;;5072095;28;20195;-46
2022/11/13 14:19:38;;;;;;;20.87;16.47;;;;;;;;;;5072388;28;20200;-45
2022/11/13 14:22:05;;;;;;;24.10;18.80;;;;;;;;;;5072341;28;20237;-45
2022/11/13 14:24:33;;;;;;;123.57;78.93;;;;;;;;;;5072192;28;20588;-44
2022/11/13 14:27:01;;;;;;;29.73;22.63;;;;;;;;;;5072203;28;20257;-45
2022/11/13 14:29:32;;;;;;;45.87;32.57;;;;;;;;;;5070879;28;20200;-45
2022/11/13 14:32:02;;;;;;;20.73;17.50;;;;;;;;;;5071004;28;20196;-45
2022/11/13 14:34:29;;;;;;;28.53;21.50;;;;;;;;;;5072055;28;20222;-45
2022/11/13 14:36:56;;;;;;;22.03;18.23;;;;;;;;;;5071728;28;20219;-46